createdAt,value
2018-04-14T00:03:34.246Z,39.80
2018-04-14T00:07:37.552Z,38.90
2018-04-14T00:11:40.864Z,40.23
2018-04-14T00:15:43.396Z,39.67
2018-04-14T00:19:45.908Z,40.83
2018-04-14T00:23:49.217Z,41.43
2018-04-14T00:27:52.522Z,40.70
2018-04-14T00:31:55.819Z,41.00
2018-04-14T00:35:59.122Z,39.97
2018-04-14T00:40:02.449Z,40.37
2018-04-14T00:44:05.708Z,40.10
2018-04-14T00:48:08.238Z,39.80
2018-04-14T00:52:10.792Z,39.23
2018-04-14T00:56:13.331Z,38.73
2018-04-14T01:00:15.872Z,40.57
2018-04-14T01:04:19.167Z,39.57
2018-04-14T01:08:22.476Z,40.63
2018-04-14T01:12:25.783Z,39.30
2018-04-14T01:16:29.084Z,39.43
2018-04-14T01:20:32.379Z,38.43
2018-04-14T01:24:35.659Z,40.73
2018-04-14T01:28:38.204Z,39.17
2018-04-14T01:32:40.738Z,40.83
2018-04-14T01:36:43.281Z,41.30
2018-04-14T01:40:45.816Z,39.17
2018-04-14T01:44:48.324Z,38.93
2018-04-14T01:48:50.860Z,40.00
2018-04-14T01:52:53.400Z,40.00
2018-04-14T01:56:55.936Z,40.43
2018-04-14T02:00:58.511Z,39.27
2018-04-14T02:05:01.024Z,38.90
2018-04-14T02:09:03.569Z,40.37
2018-04-14T02:13:06.112Z,39.30
2018-04-14T02:17:09.415Z,39.53
2018-04-14T02:21:12.723Z,39.10
2018-04-14T02:25:15.252Z,38.47
2018-04-14T02:29:17.801Z,39.07
2018-04-14T02:33:20.345Z,38.70
2018-04-14T02:37:22.889Z,38.40
2018-04-14T02:41:25.424Z,38.17
2018-04-14T02:45:27.945Z,37.77
2018-04-14T02:49:30.486Z,38.17
2018-04-14T02:53:33.027Z,38.53
2018-04-14T02:57:35.568Z,37.37
2018-04-14T03:01:39.825Z,38.80
2018-04-14T03:05:43.135Z,39.73
2018-04-14T03:09:45.648Z,40.87
2018-04-14T03:13:48.188Z,39.80
2018-04-14T03:17:50.730Z,41.80
2018-04-14T03:21:53.279Z,40.37
2018-04-14T03:25:55.816Z,40.33
2018-04-14T03:29:59.101Z,40.13
2018-04-14T03:34:01.638Z,40.60
2018-04-14T03:38:04.186Z,40.90
2018-04-14T03:42:06.728Z,41.03
2018-04-14T03:46:09.266Z,40.53
2018-04-14T03:50:12.548Z,39.87
2018-04-14T03:54:15.088Z,40.67
2018-04-14T03:58:18.392Z,39.90
2018-04-14T04:02:20.937Z,41.03
2018-04-14T04:06:24.239Z,38.93
2018-04-14T04:10:27.519Z,38.77
2018-04-14T04:14:30.056Z,40.17
2018-04-14T04:18:44.484Z,41.80
2018-04-14T04:22:58.768Z,40.53
2018-04-14T04:27:01.302Z,42.00
2018-04-14T04:31:04.651Z,42.10
2018-04-14T04:35:07.961Z,40.10
2018-04-14T04:39:10.496Z,39.77
2018-04-14T04:43:13.032Z,41.13
2018-04-14T04:47:15.567Z,41.53
2018-04-14T04:51:18.092Z,42.13
2018-04-14T04:55:21.405Z,41.20
2018-04-14T04:59:23.941Z,40.63
2018-04-14T05:03:26.480Z,41.03
2018-04-14T05:07:29.020Z,40.37
2018-04-14T05:11:31.551Z,39.40
2018-04-14T05:15:34.084Z,40.13
2018-04-14T05:19:36.640Z,40.20
2018-04-14T05:23:39.212Z,42.50
2018-04-14T05:27:42.522Z,40.87
2018-04-14T05:31:45.065Z,39.80
2018-04-14T05:35:48.347Z,39.37
2018-04-14T05:39:50.894Z,36.80
2018-04-14T05:43:53.432Z,39.43
2018-04-14T05:47:55.983Z,40.70
2018-04-14T05:51:58.524Z,38.27
2018-04-14T05:56:01.813Z,40.43
2018-04-14T06:00:05.171Z,38.93
2018-04-14T06:04:07.688Z,39.93
2018-04-14T06:08:10.224Z,39.53
2018-04-14T06:12:12.768Z,38.53
2018-04-14T06:16:16.070Z,37.67
2018-04-14T06:20:19.388Z,37.43
2018-04-14T06:24:22.696Z,37.60
2018-04-14T06:28:25.231Z,36.90
2018-04-14T06:32:27.785Z,39.43
2018-04-14T06:36:30.323Z,37.83
2018-04-14T06:40:32.863Z,37.00
2018-04-14T06:44:35.419Z,37.93
2018-04-14T06:48:37.996Z,36.63
2018-04-14T06:52:40.545Z,37.00
2018-04-14T06:56:43.061Z,37.60
2018-04-14T07:00:46.371Z,37.23
2018-04-14T07:04:49.675Z,36.93
2018-04-14T07:08:52.215Z,36.30
2018-04-14T07:12:54.747Z,38.30
2018-04-14T07:16:58.046Z,37.80
2018-04-14T07:21:01.361Z,35.73
2018-04-14T07:25:03.901Z,36.07
2018-04-14T07:29:06.449Z,37.27
2018-04-14T07:33:08.983Z,34.00
2018-04-14T07:37:11.494Z,34.37
2018-04-14T07:41:14.040Z,33.70
2018-04-14T07:45:16.574Z,33.60
2018-04-14T07:49:19.113Z,29.30
2018-04-14T07:53:21.653Z,31.93
2018-04-14T07:57:24.216Z,31.97
2018-04-14T08:01:27.495Z,33.30
2018-04-14T08:05:30.029Z,34.13
2018-04-14T08:09:32.568Z,32.80
2018-04-14T08:13:35.106Z,30.23
2018-04-14T08:17:37.645Z,32.40
2018-04-14T08:21:40.931Z,30.77
2018-04-14T08:25:43.492Z,31.87
2018-04-14T08:29:46.453Z,32.13
2018-04-14T08:33:49.099Z,29.80
2018-04-14T08:37:51.653Z,32.07
2018-04-14T08:41:54.203Z,30.70
2018-04-14T08:45:56.746Z,32.23
2018-04-14T08:49:59.297Z,29.87
2018-04-14T08:54:01.903Z,31.33
2018-04-14T08:58:04.420Z,29.43
2018-04-14T09:02:06.936Z,28.57
2018-04-14T09:06:09.474Z,29.37
2018-04-14T09:10:12.013Z,29.40
2018-04-14T09:14:15.339Z,29.23
2018-04-14T09:18:17.877Z,28.40
2018-04-14T09:22:20.393Z,30.70
2018-04-14T09:26:22.960Z,28.77
2018-04-14T09:30:25.493Z,30.20
2018-04-14T09:34:28.043Z,28.77
2018-04-14T09:38:30.578Z,28.70
2018-04-14T09:42:33.105Z,29.10
2018-04-14T09:46:35.658Z,27.33
2018-04-14T09:50:38.960Z,28.27
2018-04-14T09:54:41.500Z,25.70
2018-04-14T09:58:44.040Z,24.90
2018-04-14T10:02:47.324Z,25.63
2018-04-14T10:06:49.877Z,25.50
2018-04-14T10:10:52.430Z,24.87
2018-04-14T10:14:54.981Z,26.10
2018-04-14T10:18:57.518Z,23.87
2018-04-14T10:23:00.036Z,24.40
2018-04-14T10:27:02.629Z,25.47
2018-04-14T10:31:05.141Z,25.70
2018-04-14T10:35:08.449Z,25.57
2018-04-14T10:39:11.860Z,24.83
2018-04-14T10:43:14.382Z,24.33
2018-04-14T10:47:16.928Z,25.37
2018-04-14T10:51:19.470Z,24.27
2018-04-14T10:55:22.014Z,24.73
2018-04-14T10:59:24.551Z,27.27
2018-04-14T11:03:27.179Z,27.13
2018-04-14T11:07:29.736Z,26.40
2018-04-14T11:11:33.035Z,24.97
2018-04-14T11:15:35.577Z,24.00
2018-04-14T11:19:38.107Z,26.07
2018-04-14T11:23:41.392Z,23.97
2018-04-14T11:27:43.935Z,23.70
2018-04-14T11:31:46.489Z,26.33
2018-04-14T11:35:49.824Z,24.73
2018-04-14T11:39:52.368Z,24.63
2018-04-14T11:43:54.887Z,25.60
2018-04-14T11:47:57.453Z,25.47
2018-04-14T11:52:00.752Z,25.73
2018-04-14T11:56:04.056Z,27.27
2018-04-14T12:00:07.359Z,25.73
2018-04-14T12:04:10.652Z,24.97
2018-04-14T12:08:13.961Z,26.40
2018-04-14T12:12:17.272Z,26.97
2018-04-14T12:16:20.578Z,28.23
2018-04-14T12:20:23.124Z,27.97
2018-04-14T12:24:25.664Z,29.03
2018-04-14T12:28:28.197Z,29.43
2018-04-14T12:32:30.741Z,27.77
2018-04-14T12:36:33.270Z,27.53
2018-04-14T12:40:35.848Z,28.87
2018-04-14T12:44:38.391Z,29.53
2018-04-14T12:48:41.128Z,29.90
2018-04-14T12:52:44.459Z,30.47
2018-04-14T12:56:47.768Z,28.90
2018-04-14T13:00:50.303Z,31.03
2018-04-14T13:04:52.852Z,31.73
2018-04-14T13:08:55.373Z,30.77
2018-04-14T13:12:57.926Z,30.93
2018-04-14T13:17:00.481Z,32.10
2018-04-14T13:21:03.026Z,32.30
2018-04-14T13:25:05.577Z,30.17
2018-04-14T13:29:08.101Z,32.47
2018-04-14T13:33:10.643Z,31.07
2018-04-14T13:37:13.180Z,33.60
2018-04-14T13:41:15.722Z,31.70
2018-04-14T13:45:18.274Z,31.83
2018-04-14T13:49:21.553Z,32.10
2018-04-14T13:53:24.094Z,32.33
2018-04-14T13:57:26.627Z,30.83
2018-04-14T14:01:29.168Z,32.57
2018-04-14T14:05:31.700Z,32.53
2018-04-14T14:09:34.232Z,32.27
2018-04-14T14:13:36.764Z,33.17
2018-04-14T14:17:39.303Z,32.70
2018-04-14T14:21:41.848Z,31.37
2018-04-14T14:25:44.392Z,32.97
2018-04-14T14:29:46.916Z,33.03
2018-04-14T14:33:50.229Z,33.00
2018-04-14T14:37:53.549Z,32.63
2018-04-14T14:41:56.089Z,33.33
2018-04-14T14:45:58.624Z,34.50
2018-04-14T14:50:06.739Z,34.20
2018-04-14T14:54:09.277Z,33.33
2018-04-14T14:58:11.816Z,33.67
2018-04-14T15:02:14.365Z,34.00
2018-04-14T15:06:17.679Z,33.97
2018-04-14T15:10:20.979Z,33.40
2018-04-14T15:14:24.268Z,34.80
2018-04-14T15:18:27.573Z,34.83
2018-04-14T15:22:30.875Z,34.90
2018-04-14T15:26:34.182Z,34.37
2018-04-14T15:30:37.491Z,34.80
2018-04-14T15:34:40.826Z,35.43
2018-04-14T15:38:44.096Z,35.47
2018-04-14T15:42:47.414Z,34.63
2018-04-14T15:46:49.956Z,34.23
2018-04-14T15:50:52.498Z,34.63
2018-04-14T15:54:55.020Z,35.13
2018-04-14T15:58:57.564Z,34.30
2018-04-14T16:03:00.097Z,35.10
2018-04-14T16:07:02.653Z,35.30
2018-04-14T16:11:05.216Z,34.90
2018-04-14T16:15:07.789Z,33.87
2018-04-14T16:19:10.507Z,33.17
2018-04-14T16:23:13.876Z,32.07
2018-04-14T16:27:17.185Z,31.23
2018-04-14T16:31:19.756Z,30.83
2018-04-14T16:35:22.304Z,30.43
2018-04-14T16:39:24.852Z,29.47
2018-04-14T16:43:27.395Z,30.43
2018-04-14T16:47:29.932Z,28.60
2018-04-14T16:51:32.472Z,27.20
2018-04-14T16:55:34.987Z,29.80
2018-04-14T16:59:37.525Z,28.27
2018-04-14T17:03:40.066Z,31.43
2018-04-14T17:07:42.610Z,28.63
2018-04-14T17:11:45.157Z,27.40
2018-04-14T17:15:47.675Z,28.50
2018-04-14T17:19:50.218Z,27.67
2018-04-14T17:23:52.771Z,28.80
2018-04-14T17:27:56.078Z,29.30
2018-04-14T17:31:58.637Z,28.77
2018-04-14T17:36:01.167Z,29.70
2018-04-14T17:40:03.716Z,29.20
2018-04-14T17:44:07.024Z,28.30
2018-04-14T17:48:10.329Z,29.23
2018-04-14T17:52:13.633Z,27.73
2018-04-14T17:56:16.946Z,29.30
2018-04-14T18:00:19.476Z,29.67
2018-04-14T18:04:22.039Z,29.97
2018-04-14T18:08:24.574Z,28.73
2018-04-14T18:12:27.148Z,30.10
2018-04-14T18:16:29.680Z,28.93
2018-04-14T18:20:32.195Z,29.67
2018-04-14T18:24:34.728Z,28.53
2018-04-14T18:28:37.264Z,32.63
2018-04-14T18:32:39.860Z,29.27
2018-04-14T18:36:42.397Z,29.40
2018-04-14T18:40:44.942Z,28.43
2018-04-14T18:44:47.482Z,28.03
2018-04-14T18:48:50.784Z,27.43
2018-04-14T18:52:53.328Z,29.80
2018-04-14T18:56:56.684Z,26.47
2018-04-14T19:00:59.180Z,28.00
2018-04-14T19:05:01.717Z,26.70
2018-04-14T19:09:04.247Z,27.63
2018-04-14T19:13:06.810Z,28.83
2018-04-14T19:17:10.176Z,32.27
2018-04-14T19:21:13.581Z,30.93
2018-04-14T19:25:16.927Z,29.40
2018-04-14T19:29:19.501Z,28.13
2018-04-14T19:33:22.056Z,28.17
2018-04-14T19:37:24.600Z,27.37
2018-04-14T19:41:27.125Z,29.40
2018-04-14T19:45:29.660Z,25.27
2018-04-14T19:49:32.204Z,30.25
2018-04-14T19:53:35.517Z,29.67
2018-04-14T19:57:38.059Z,25.97
2018-04-14T20:01:40.575Z,28.00
2018-04-14T20:05:43.892Z,26.37
2018-04-14T20:09:46.443Z,30.23
2018-04-14T20:13:48.996Z,28.97
2018-04-14T20:17:51.536Z,28.37
2018-04-14T20:21:54.841Z,23.47
2018-04-14T20:25:57.377Z,25.93
2018-04-14T20:29:59.920Z,22.17
2018-04-14T20:34:02.506Z,26.60
2018-04-14T20:38:05.048Z,28.37
2018-04-14T20:42:07.578Z,27.57
2018-04-14T20:46:10.103Z,26.30
2018-04-14T20:50:12.657Z,29.40
2018-04-14T20:54:15.194Z,28.90
2018-04-14T20:58:17.741Z,30.00
2018-04-14T21:02:20.300Z,28.90
2018-04-14T21:06:22.827Z,27.73
2018-04-14T21:10:25.371Z,23.80
2018-04-14T21:14:27.932Z,23.83
2018-04-14T21:18:31.240Z,27.20
2018-04-14T21:22:34.548Z,24.90
2018-04-14T21:26:37.829Z,25.17
2018-04-14T21:30:40.367Z,25.30
2018-04-14T21:34:42.917Z,25.00
2018-04-14T21:38:46.233Z,26.20
2018-04-14T21:42:49.535Z,27.13
2018-04-14T21:46:52.074Z,27.00
2018-04-14T21:50:54.623Z,30.90
2018-04-14T21:54:57.176Z,30.77
2018-04-14T21:59:00.486Z,28.83
2018-04-14T22:03:04.100Z,28.40
2018-04-14T22:07:07.385Z,28.33
2018-04-14T22:11:09.956Z,27.03
2018-04-14T22:15:12.512Z,21.93
2018-04-14T22:19:15.054Z,24.60
2018-04-14T22:23:18.370Z,26.23
2018-04-14T22:27:20.893Z,24.13
2018-04-14T22:31:23.435Z,24.03
2018-04-14T22:35:25.991Z,23.87
2018-04-14T22:39:28.526Z,24.00
2018-04-14T22:43:31.059Z,23.73
2018-04-14T22:47:33.580Z,27.97
2018-04-14T22:51:36.135Z,26.97
2018-04-14T22:55:42.203Z,31.43
2018-04-14T22:59:44.732Z,30.23
2018-04-14T23:03:47.263Z,29.20
2018-04-14T23:07:49.813Z,29.90
2018-04-14T23:11:52.339Z,27.23
2018-04-14T23:15:54.880Z,23.37
2018-04-14T23:19:57.416Z,24.23
2018-04-14T23:23:59.945Z,23.93
2018-04-14T23:28:02.480Z,25.17
2018-04-14T23:32:04.992Z,25.90
2018-04-14T23:36:07.525Z,29.17
2018-04-14T23:40:10.059Z,25.63
2018-04-14T23:44:12.591Z,24.53
2018-04-14T23:48:15.132Z,23.17
2018-04-14T23:52:17.648Z,21.90
2018-04-14T23:56:20.202Z,24.83
